Time;durP1;ratioP1;P1;durP2;ratioP2;P2;SDS_P1;SDS_P2;PMS_P1;PMS_P2;Temp;Humidity;BMP_temperature;BMP_pressure;BME280_temperature;BME280_humidity;BME280_pressure;Samples;Min_cycle;Max_cycle;Signal;HPM_P1;HPM_P2
2022/08/25 00:01:51;;;;;;;3.88;2.30;;;;;;;21.67;100.00;166239.31;4991078;28;20482;-64
2022/08/25 00:04:17;;;;;;;4.53;2.55;;;;;;;21.63;100.00;166228.47;4989598;28;20524;-63
2022/08/25 00:06:44;;;;;;;4.53;3.55;;;;;;;21.57;100.00;166213.50;4991231;28;20026;-63
2022/08/25 00:09:12;;;;;;;5.00;2.50;;;;;;;21.49;100.00;166191.72;4990138;28;20062;-64
2022/08/25 00:11:38;;;;;;;;;;;;;;;21.43;100.00;166175.44;4991207;28;20038;-63
2022/08/25 00:14:09;;;;;;;7.20;2.00;;;;;;;21.38;100.00;166164.53;4990178;28;19909;-64
2022/08/25 00:16:35;;;;;;;5.55;2.60;;;;;;;21.35;100.00;166156.41;4990674;28;20062;-63
2022/08/25 00:19:10;;;;;;;4.57;2.35;;;;;;;21.30;100.00;166142.81;4989803;28;20096;-64
2022/08/25 00:21:35;;;;;;;3.58;2.70;;;;;;;21.24;100.00;166127.91;4991063;28;20026;-63
2022/08/25 00:24:01;;;;;;;12.63;2.60;;;;;;;21.23;100.00;166125.19;4989985;28;20530;-64
2022/08/25 00:26:27;;;;;;;3.60;2.55;;;;;;;21.20;100.00;166115.69;4990624;28;20065;-63
2022/08/25 00:28:53;;;;;;;4.63;2.92;;;;;;;21.18;100.00;166111.63;4989637;28;20030;-63
2022/08/25 00:31:22;;;;;;;5.38;2.88;;;;;;;21.17;100.00;166107.50;4990940;28;20035;-66
2022/08/25 00:33:48;;;;;;;8.60;3.03;;;;;;;21.14;100.00;166100.72;4989362;28;20080;-66
2022/08/25 00:36:16;;;;;;;8.50;4.10;;;;;;;21.13;100.00;166098.00;4991166;28;20023;-64
2022/08/25 00:38:43;;;;;;;4.22;2.53;;;;;;;21.12;100.00;166095.28;4991233;28;20022;-65
2022/08/25 00:41:12;;;;;;;7.68;2.65;;;;;;;21.08;100.00;166084.44;4992879;28;20041;-65
2022/08/25 00:43:40;;;;;;;;;;;;;;;21.04;100.00;166073.53;4994728;28;20492;-65
2022/08/25 00:46:06;;;;;;;;;;;;;;;21.00;100.00;166062.72;4993770;28;20411;-64
2022/08/25 00:48:31;;;;;;;6.65;3.08;;;;;;;20.97;100.00;166054.53;4993878;28;19909;-65
2022/08/25 00:50:58;;;;;;;5.43;3.10;;;;;;;20.96;100.00;166051.88;4992990;28;20042;-64
2022/08/25 00:53:23;;;;;;;5.65;2.38;;;;;;;20.94;100.00;166046.44;4994443;28;20026;-64
2022/08/25 00:55:49;;;;;;;8.95;2.97;;;;;;;20.92;100.00;166043.69;4992157;28;20042;-63
2022/08/25 00:58:20;;;;;;;4.28;2.95;;;;;;;20.90;100.00;166038.25;4992912;28;20038;-63
2022/08/25 01:00:51;;;;;;;9.85;2.85;;;;;;;20.86;100.00;166027.41;4992741;28;20129;-63
2022/08/25 01:03:18;;;;;;;9.23;3.10;;;;;;;20.84;100.00;166021.97;4994018;28;20363;-63
2022/08/25 01:05:45;;;;;;;4.60;2.58;;;;;;;20.76;100.00;166000.25;4992532;28;20045;-62
2022/08/25 01:08:11;;;;;;;8.05;3.38;;;;;;;20.78;100.00;166005.69;4994264;28;20026;-63
2022/08/25 01:10:40;;;;;;;8.27;3.30;;;;;;;20.77;100.00;166002.97;4991969;28;20042;-63
2022/08/25 01:13:13;;;;;;;4.57;3.05;;;;;;;20.74;100.00;165994.78;4994145;28;20034;-63
2022/08/25 01:15:39;;;;;;;5.70;2.85;;;;;;;20.72;100.00;165989.34;4992333;28;20405;-63
2022/08/25 01:18:04;;;;;;;12.90;2.92;;;;;;;20.69;100.00;165982.56;4994021;28;20018;-63
2022/08/25 01:20:31;;;;;;;8.60;3.00;;;;;;;20.67;100.00;165975.75;4992278;28;20034;-63
2022/08/25 01:22:58;;;;;;;5.05;2.20;;;;;;;20.59;100.00;165956.72;4993861;28;20022;-63
2022/08/25 01:26:06;;;;;;;6.22;4.75;;;;;;;20.55;100.00;165945.91;4992341;28;20045;-63
2022/08/25 01:28:32;;;;;;;4.85;3.28;;;;;;;20.50;100.00;165930.94;4973898;28;20137;-63
2022/08/25 01:30:57;;;;;;;7.32;2.65;;;;;;;20.45;100.00;165918.72;4972272;28;20051;-63
2022/08/25 01:33:24;;;;;;;5.57;3.25;;;;;;;20.42;100.00;165910.63;4974558;28;20091;-63
2022/08/25 01:35:49;;;;;;;5.10;3.40;;;;;;;20.38;100.00;165899.72;4972569;28;20395;-62
2022/08/25 01:38:15;;;;;;;10.68;5.78;;;;;;;20.37;100.00;165897.00;4984496;28;20034;-63
2022/08/25 01:40:42;;;;;;;5.07;3.50;;;;;;;20.28;100.00;165875.34;4991842;28;20387;-63
2022/08/25 01:43:16;;;;;;;4.45;4.03;;;;;;;20.30;100.00;165879.38;4993680;28;20453;-62
2022/08/25 01:45:45;;;;;;;7.43;3.38;;;;;;;20.26;100.00;165869.88;4991570;28;20039;-62
2022/08/25 01:48:12;;;;;;;5.00;3.65;;;;;;;20.24;100.00;165864.44;4993437;28;20494;-62
2022/08/25 01:50:39;;;;;;;4.30;3.47;;;;;;;20.20;100.00;165853.59;4991687;28;20498;-63
2022/08/25 01:53:13;;;;;;;5.00;3.45;;;;;;;20.16;100.00;165842.72;4992633;28;20058;-62
2022/08/25 01:55:51;;;;;;;8.07;3.05;;;;;;;20.15;100.00;165840.00;4991830;28;20042;-62
2022/08/25 01:58:21;;;;;;;;;;;;;;;20.11;100.00;165829.16;4994164;28;20072;-64
2022/08/25 02:00:48;;;;;;;3.90;3.42;;;;;;;20.09;100.00;165823.72;4991228;28;19914;-65
2022/08/25 02:03:16;;;;;;;6.65;3.58;;;;;;;20.04;100.00;165810.16;4993135;28;20036;-65
2022/08/25 02:05:42;;;;;;;7.35;4.05;;;;;;;20.01;100.00;165802.00;4991268;28;20041;-64
2022/08/25 02:08:07;;;;;;;3.17;2.40;;;;;;;19.90;100.00;165774.88;4992768;28;20022;-65
2022/08/25 02:10:34;;;;;;;5.75;3.30;;;;;;;19.92;100.00;165780.28;4991379;28;20526;-65
2022/08/25 02:12:59;;;;;;;9.50;3.38;;;;;;;19.91;100.00;165777.63;4992961;28;20022;-64
2022/08/25 02:15:24;;;;;;;8.07;3.70;;;;;;;19.90;100.00;165774.88;4989800;28;20042;-64
2022/08/25 02:17:50;;;;;;;3.75;2.97;;;;;;;19.85;100.00;165761.28;4992851;28;20030;-64
2022/08/25 02:20:16;;;;;;;7.15;3.10;;;;;;;19.81;100.00;165750.41;4991315;28;20112;-64
2022/08/25 02:22:41;;;;;;;5.45;2.55;;;;;;;19.79;100.00;165744.97;4992594;28;20073;-65
2022/08/25 02:25:07;;;;;;;6.75;2.75;;;;;;;19.69;100.00;165717.84;4991223;28;20042;-65
2022/08/25 02:27:32;;;;;;;6.40;2.63;;;;;;;19.77;100.00;165739.56;4992425;28;20036;-65
2022/08/25 02:29:58;;;;;;;6.65;2.88;;;;;;;19.78;100.00;165742.25;4991229;28;20054;-66
2022/08/25 02:32:23;;;;;;;5.63;3.50;;;;;;;19.79;100.00;165744.97;4992239;28;20061;-65
2022/08/25 02:34:48;;;;;;;3.60;2.83;;;;;;;19.83;100.00;165755.84;4990556;28;20057;-66
2022/08/25 02:37:14;;;;;;;9.35;3.30;;;;;;;19.83;100.00;165755.84;4992505;28;20033;-66
2022/08/25 02:39:39;;;;;;;5.28;3.17;;;;;;;19.88;100.00;165769.44;4990555;28;20084;-66
2022/08/25 02:42:05;;;;;;;3.55;2.88;;;;;;;19.90;100.00;165774.88;4992555;28;20819;-66
2022/08/25 02:44:30;;;;;;;4.95;3.10;;;;;;;19.95;100.00;165788.44;4990713;28;20038;-66
2022/08/25 02:46:56;;;;;;;4.32;3.05;;;;;;;19.96;100.00;165791.16;4992322;28;20109;-66
2022/08/25 02:49:21;;;;;;;6.85;3.65;;;;;;;20.01;100.00;165802.00;4990606;28;20048;-66
2022/08/25 02:51:46;;;;;;;6.60;3.78;;;;;;;20.01;100.00;165803.38;4991949;28;20031;-66
2022/08/25 02:54:12;;;;;;;2.97;2.58;;;;;;;20.03;100.00;165807.44;4990468;28;20038;-66
2022/08/25 02:56:37;;;;;;;5.80;3.28;;;;;;;20.04;100.00;165810.16;4992142;28;20022;-65
2022/08/25 02:59:03;;;;;;;5.95;2.95;;;;;;;20.04;100.00;165810.16;4991060;28;20054;-66
2022/08/25 03:01:31;;;;;;;3.97;3.05;;;;;;;20.04;100.00;165810.16;4991021;28;20014;-66
2022/08/25 03:03:57;;;;;;;7.43;2.85;;;;;;;20.03;100.00;165807.44;4990825;28;20105;-65
2022/08/25 03:06:23;;;;;;;6.82;3.80;;;;;;;20.02;100.00;165804.72;4992047;28;20362;-66
2022/08/25 03:08:48;;;;;;;4.07;3.58;;;;;;;19.97;100.00;165793.88;4990230;28;20382;-66
2022/08/25 03:11:14;;;;;;;5.93;3.45;;;;;;;19.97;100.00;165793.88;4991845;28;20038;-64
2022/08/25 03:13:39;;;;;;;4.50;3.58;;;;;;;19.94;100.00;165785.72;4991691;28;20030;-64
2022/08/25 03:16:06;;;;;;;6.30;2.85;;;;;;;19.90;100.00;165774.88;4989840;28;20574;-64
2022/08/25 03:18:32;;;;;;;4.45;2.85;;;;;;;19.86;100.00;165764.00;4991895;28;20037;-64
2022/08/25 03:20:58;;;;;;;6.78;2.75;;;;;;;19.77;100.00;165739.56;4990501;28;20038;-64
2022/08/25 03:23:24;;;;;;;21.13;4.75;;;;;;;19.66;100.00;165711.03;4991700;28;20478;-64
2022/08/25 03:28:33;;;;;;;6.25;2.95;;;;;;;19.52;100.00;165674.41;4991654;28;20045;-64
2022/08/25 03:31:00;;;;;;;4.75;4.25;;;;;;;19.46;100.00;165658.16;4989369;28;20051;-64
2022/08/25 03:33:29;;;;;;;7.30;3.00;;;;;;;19.39;100.00;165640.50;4991340;28;20393;-66
2022/08/25 03:35:54;;;;;;;8.02;3.13;;;;;;;19.36;100.00;165632.31;4990230;28;20046;-65
2022/08/25 03:38:21;;;;;;;6.72;2.70;;;;;;;19.30;100.00;165617.44;4991478;28;20031;-65
2022/08/25 03:40:46;;;;;;;5.50;3.80;;;;;;;19.27;100.00;165609.28;4990145;28;20457;-65
2022/08/25 03:43:12;;;;;;;8.75;3.67;;;;;;;19.24;100.00;165601.16;4991577;28;20034;-65
2022/08/25 03:45:41;;;;;;;9.40;3.00;;;;;;;19.18;100.00;165586.22;4989423;28;20427;-65
2022/08/25 03:48:07;;;;;;;4.45;3.03;;;;;;;19.15;100.00;165578.06;4991850;28;20030;-65
2022/08/25 03:50:33;;;;;;;8.60;3.63;;;;;;;19.09;100.00;165561.81;4990014;28;20528;-64
2022/08/25 03:52:58;;;;;;;6.03;2.95;;;;;;;19.01;100.00;165541.47;4990895;28;20501;-64
2022/08/25 03:55:24;;;;;;;14.18;3.35;;;;;;;18.99;100.00;165534.66;4990255;28;20065;-64
2022/08/25 03:57:51;;;;;;;5.68;3.58;;;;;;;18.92;100.00;165517.06;4991504;28;20038;-64
2022/08/25 04:00:17;;;;;;;5.63;3.60;;;;;;;18.88;100.00;165506.13;4989228;28;20058;-64
2022/08/25 04:02:43;;;;;;;7.78;3.47;;;;;;;18.82;100.00;165489.84;4991136;28;20022;-64
2022/08/25 04:05:09;;;;;;;3.78;3.00;;;;;;;18.80;100.00;165484.47;4990119;28;20043;-64
2022/08/25 04:07:34;;;;;;;4.68;3.50;;;;;;;18.77;100.00;165477.66;4990588;28;20462;-64
2022/08/25 04:10:00;;;;;;;10.05;3.00;;;;;;;18.75;100.00;165470.88;4989486;28;20077;-65
2022/08/25 04:12:25;;;;;;;6.18;3.05;;;;;;;18.71;100.00;165462.75;4986729;28;20031;-58
2022/08/25 04:14:51;;;;;;;5.38;3.15;;;;;;;18.69;100.00;165456.00;4990622;28;20046;-64
2022/08/25 04:17:17;;;;;;;6.25;4.07;;;;;;;18.65;100.00;165446.44;4995030;28;20113;-63
2022/08/25 04:19:42;;;;;;;7.63;3.50;;;;;;;18.63;100.00;165441.06;4992994;28;20066;-60
2022/08/25 04:22:08;;;;;;;4.60;3.63;;;;;;;18.59;100.00;165430.19;4994614;28;20014;-60
2022/08/25 04:24:33;;;;;;;7.22;4.72;;;;;;;18.56;100.00;165422.06;4992941;28;20412;-60
2022/08/25 04:26:59;;;;;;;7.70;3.83;;;;;;;18.52;100.00;165411.19;4994556;28;20030;-60
2022/08/25 04:29:25;;;;;;;11.95;4.32;;;;;;;18.49;100.00;165403.09;4993097;28;20046;-60
2022/08/25 04:31:52;;;;;;;6.78;4.22;;;;;;;18.46;100.00;165394.94;4994119;28;20117;-60
2022/08/25 04:34:20;;;;;;;7.90;3.70;;;;;;;18.41;100.00;165381.38;4993443;28;20041;-60
2022/08/25 04:36:46;;;;;;;14.73;4.93;;;;;;;18.40;100.00;165380.00;4993962;28;20034;-60
2022/08/25 04:39:12;;;;;;;6.18;4.22;;;;;;;18.31;100.00;165356.97;4992970;28;20100;-60
2022/08/25 04:41:37;;;;;;;4.72;3.92;;;;;;;18.36;100.00;165370.50;4994056;28;20138;-61
2022/08/25 04:44:03;;;;;;;6.35;4.97;;;;;;;18.34;100.00;165365.13;4992889;28;20022;-60
2022/08/25 04:46:31;;;;;;;10.73;3.38;;;;;;;18.31;100.00;165356.97;4994301;28;20034;-61
2022/08/25 04:48:58;;;;;;;11.85;4.13;;;;;;;18.29;100.00;165351.53;4993248;28;20027;-61
2022/08/25 04:51:34;;;;;;;9.70;4.18;;;;;;;18.32;100.00;165358.31;4994104;28;20038;-60
2022/08/25 04:54:01;;;;;;;4.80;4.00;;;;;;;18.32;100.00;165359.69;4993030;28;20414;-61
2022/08/25 04:56:28;;;;;;;9.85;5.93;;;;;;;18.34;100.00;165363.75;4994212;28;20077;-60
2022/08/25 04:58:54;;;;;;;5.25;4.03;;;;;;;18.29;100.00;165351.53;4992731;28;20482;-60
2022/08/25 05:01:23;;;;;;;9.32;4.80;;;;;;;18.37;100.00;165371.91;4994481;28;20080;-60
2022/08/25 05:03:54;;;;;;;9.52;5.78;;;;;;;18.38;100.00;165375.94;4992742;28;20544;-61
2022/08/25 05:06:19;;;;;;;11.63;4.18;;;;;;;18.40;100.00;165380.00;4993951;28;20058;-61
2022/08/25 05:08:45;;;;;;;8.18;3.80;;;;;;;18.39;100.00;165378.66;4993870;28;20085;-61
2022/08/25 05:11:13;;;;;;;13.80;7.07;;;;;;;18.43;100.00;165386.81;4992767;28;20520;-61
2022/08/25 05:13:40;;;;;;;;;;;;;;;18.45;100.00;165392.22;4994120;28;20054;-61
2022/08/25 05:16:07;;;;;;;6.78;5.00;;;;;;;18.47;100.00;165397.66;4992710;28;19928;-61
2022/08/25 05:18:33;;;;;;;5.95;3.95;;;;;;;18.47;100.00;165399.00;4993672;28;20034;-61
2022/08/25 05:21:08;;;;;;;17.73;4.47;;;;;;;18.53;100.00;165413.91;4992241;28;20497;-62
2022/08/25 05:23:33;;;;;;;10.18;4.53;;;;;;;18.55;100.00;165419.34;4993747;28;20030;-59
2022/08/25 05:26:20;;;;;;;7.38;4.00;;;;;;;18.58;100.00;165427.47;4992023;28;20403;-59
2022/08/25 05:28:47;;;;;;;12.95;5.10;;;;;;;18.61;100.00;165434.28;4993400;28;20105;-60
2022/08/25 05:31:13;;;;;;;5.27;3.93;;;;;;;18.65;100.00;165446.44;4992310;28;20045;-59
2022/08/25 05:33:39;;;;;;;6.38;4.30;;;;;;;18.62;100.00;165438.34;4993456;28;20062;-59
2022/08/25 05:36:06;;;;;;;7.80;4.32;;;;;;;18.73;100.00;165465.47;4992120;28;20109;-59
2022/08/25 05:38:33;;;;;;;10.73;5.25;;;;;;;18.78;100.00;165479.03;4993519;28;20525;-58
2022/08/25 05:41:01;;;;;;;8.68;4.53;;;;;;;18.82;100.00;165489.84;4992208;28;20446;-59
2022/08/25 05:43:27;;;;;;;8.38;4.63;;;;;;;18.91;100.00;165512.94;4993339;28;20026;-59
2022/08/25 05:45:54;;;;;;;13.48;4.85;;;;;;;18.97;100.00;165530.59;4991973;28;20077;-59
2022/08/25 05:48:20;;;;;;;8.75;3.75;;;;;;;19.06;100.00;165552.31;4993695;28;20425;-59
2022/08/25 05:50:54;;;;;;;4.97;4.47;;;;;;;19.12;100.00;165568.59;4991391;28;20073;-59
2022/08/25 05:53:21;;;;;;;8.23;4.30;;;;;;;19.21;100.00;165593.00;4993329;28;20041;-59
2022/08/25 05:55:47;;;;;;;6.53;4.43;;;;;;;19.28;100.00;165610.66;4991692;28;20125;-59
2022/08/25 05:58:12;;;;;;;5.50;3.97;;;;;;;19.33;100.00;165625.56;4992971;28;20106;-59
2022/08/25 06:00:38;;;;;;;7.22;4.55;;;;;;;19.43;100.00;165651.38;4991563;28;20042;-59
2022/08/25 06:03:04;;;;;;;7.32;4.88;;;;;;;19.54;100.00;165679.84;4993261;28;20018;-59
2022/08/25 06:05:31;;;;;;;10.63;4.45;;;;;;;19.63;100.00;165704.25;4991110;28;20497;-59
2022/08/25 06:07:56;;;;;;;7.03;4.03;;;;;;;19.72;100.00;165725.97;4992963;28;20478;-59
2022/08/25 06:10:22;;;;;;;5.05;4.65;;;;;;;19.81;100.00;165751.72;4991770;28;20042;-59
2022/08/25 06:12:47;;;;;;;9.05;4.57;;;;;;;19.92;100.00;165780.28;4992492;28;20018;-59
2022/08/25 06:15:19;;;;;;;5.90;4.13;;;;;;;20.03;100.00;165807.44;4991397;28;20069;-60
2022/08/25 06:17:45;;;;;;;11.27;4.32;;;;;;;20.14;100.00;165837.31;4992950;28;20026;-60
2022/08/25 06:20:15;;;;;;;6.10;3.70;;;;;;;20.24;100.00;165864.44;4991226;28;20042;-60
2022/08/25 06:22:41;;;;;;;6.68;3.88;;;;;;;20.39;100.00;165903.84;4992879;28;20076;-60
2022/08/25 06:25:08;;;;;;;6.78;4.32;;;;;;;20.53;100.00;165940.44;4991267;28;20518;-60
2022/08/25 06:27:34;;;;;;;6.17;4.07;;;;;;;20.67;100.00;165977.13;4992378;28;20053;-60
2022/08/25 06:30:03;;;;;;;7.03;4.22;;;;;;;20.81;100.00;166013.84;4990992;28;20140;-60
2022/08/25 06:32:34;;;;;;;8.75;4.50;;;;;;;20.94;100.00;166046.44;4992469;28;20037;-60
2022/08/25 06:35:00;;;;;;;5.45;4.32;;;;;;;21.10;100.00;166089.88;4990734;28;20048;-61
2022/08/25 06:37:25;;;;;;;9.80;4.82;;;;;;;21.27;100.00;166133.31;4991684;28;20497;-60
2022/08/25 06:39:51;;;;;;;7.18;4.43;;;;;;;21.39;100.00;166165.94;4989382;28;20034;-61
2022/08/25 06:42:16;;;;;;;6.53;4.28;;;;;;;21.50;100.00;166195.78;5003484;28;20523;-61
2022/08/25 06:44:42;;;;;;;5.28;4.53;;;;;;;21.67;100.00;166240.66;5010337;28;20038;-62
2022/08/25 06:47:08;;;;;;;5.18;4.40;;;;;;;21.81;100.00;166277.34;4992416;28;20022;-62
2022/08/25 06:49:34;;;;;;;11.55;4.00;;;;;;;21.92;100.00;166304.53;4990393;28;20042;-61
2022/08/25 06:51:59;;;;;;;5.43;3.50;;;;;;;22.11;100.00;166356.13;4992128;28;20532;-61
2022/08/25 06:54:24;;;;;;;9.18;5.55;;;;;;;22.27;100.00;166396.91;4990731;28;20425;-61
2022/08/25 06:56:50;;;;;;;8.90;4.55;;;;;;;22.40;100.00;166432.28;4991673;28;20030;-61
2022/08/25 06:59:16;;;;;;;20.90;5.32;;;;;;;22.55;100.00;166470.31;4990490;28;20034;-61
2022/08/25 07:01:42;;;;;;;7.05;3.63;;;;;;;22.72;100.00;166515.16;4992106;28;20047;-61
2022/08/25 07:04:07;;;;;;;10.15;4.07;;;;;;;22.88;100.00;166557.31;4990534;28;20102;-61
2022/08/25 07:06:34;;;;;;;4.65;3.97;;;;;;;23.07;100.00;166608.94;4991735;28;20060;-61
2022/08/25 07:09:00;;;;;;;5.32;3.35;;;;;;;23.24;100.00;166652.50;4990663;28;20052;-62
2022/08/25 07:11:25;;;;;;;3.58;3.20;;;;;;;23.45;100.00;166709.59;4991344;28;20349;-61
2022/08/25 07:13:51;;;;;;;27.58;4.45;;;;;;;23.72;100.00;166780.28;4989983;28;20486;-61
2022/08/25 07:16:19;;;;;;;4.45;3.80;;;;;;;24.22;100.00;166910.91;4991706;28;20104;-61
2022/08/25 07:18:44;;;;;;;10.95;4.55;;;;;;;24.90;100.00;167090.53;4991197;28;20033;-61
2022/08/25 07:21:11;;;;;;;6.25;3.70;;;;;;;25.42;100.00;167226.63;4990405;28;20418;-61
2022/08/25 07:23:38;;;;;;;16.02;3.95;;;;;;;25.84;100.00;167336.88;4991532;28;20123;-61
2022/08/25 07:26:16;;;;;;;11.48;4.10;;;;;;;26.14;100.00;167417.22;4990376;28;20042;-61
2022/08/25 07:28:42;;;;;;;7.85;3.78;;;;;;;26.52;100.00;167517.94;4992080;28;20124;-61
2022/08/25 07:31:07;;;;;;;12.75;4.57;;;;;;;27.04;100.00;167654.16;4990251;28;20058;-61
2022/08/25 07:33:33;;;;;;;21.27;4.57;;;;;;;27.64;100.00;167813.53;4991357;28;20390;-61
2022/08/25 07:35:58;;;;;;;6.78;3.80;;;;;;;28.05;100.00;167921.16;4990217;28;20042;-62
2022/08/25 07:38:23;;;;;;;8.18;3.65;;;;;;;28.29;100.00;167985.28;4991858;28;20474;-62
2022/08/25 07:40:53;;;;;;;10.73;3.38;;;;;;;28.24;100.00;167970.28;4989989;28;20454;-61
2022/08/25 07:43:20;;;;;;;5.45;3.95;;;;;;;28.15;100.00;167948.47;4991438;28;20445;-61
2022/08/25 07:45:45;;;;;;;8.65;5.50;;;;;;;28.32;100.00;167993.44;4990158;28;20394;-61
2022/08/25 07:48:11;;;;;;;9.00;3.33;;;;;;;28.61;100.00;168068.41;4992526;28;20046;-61
2022/08/25 07:50:44;;;;;;;8.98;4.35;;;;;;;28.66;100.00;168082.00;4993761;28;20393;-61
2022/08/25 07:53:10;;;;;;;9.57;3.95;;;;;;;28.79;100.00;168116.16;4995850;28;20261;-61
2022/08/25 07:55:36;;;;;;;3.58;3.17;;;;;;;29.08;100.00;168192.47;4993812;28;20042;-61
2022/08/25 07:58:04;;;;;;;8.02;3.70;;;;;;;29.02;100.00;168176.13;4995374;28;20474;-61
2022/08/25 08:00:32;;;;;;;6.25;3.83;;;;;;;28.79;100.00;168117.47;4993767;28;20039;-62
2022/08/25 08:02:58;;;;;;;9.35;4.00;;;;;;;28.48;100.00;168035.66;4995683;28;20029;-62
2022/08/25 08:05:24;;;;;;;8.90;3.80;;;;;;;28.18;100.00;167956.63;4993739;28;20042;-62
2022/08/25 08:07:51;;;;;;;13.38;4.00;;;;;;;27.86;100.00;167870.75;4995256;28;20471;-62
2022/08/25 08:10:17;;;;;;;6.40;3.55;;;;;;;27.68;100.00;167823.09;4993806;28;20050;-61
2022/08/25 08:12:42;;;;;;;6.10;3.65;;;;;;;27.79;100.00;167853.06;4994864;28;20025;-62
2022/08/25 08:15:08;;;;;;;7.85;3.88;;;;;;;27.75;100.00;167840.81;4993827;28;20042;-61
2022/08/25 08:17:34;;;;;;;5.88;3.83;;;;;;;27.90;100.00;167880.28;4994813;28;20034;-62
2022/08/25 08:19:59;;;;;;;12.20;4.07;;;;;;;28.05;100.00;167921.16;4991309;28;20624;-61
2022/08/25 08:22:25;;;;;;;8.27;3.33;;;;;;;28.27;100.00;167979.81;5002595;28;20045;-62
2022/08/25 08:24:50;;;;;;;6.00;4.15;;;;;;;28.57;100.00;168057.47;5002050;28;20096;-61
2022/08/25 08:27:15;;;;;;;9.13;3.83;;;;;;;28.94;100.00;168155.66;5013970;28;20389;-61
2022/08/25 08:29:41;;;;;;;9.77;4.50;;;;;;;29.42;100.00;168283.84;5012471;28;20072;-61
2022/08/25 08:32:09;;;;;;;11.13;3.97;;;;;;;29.87;100.00;168401.09;5014630;28;20085;-61
2022/08/25 08:34:35;;;;;;;9.20;4.28;;;;;;;29.97;100.00;168428.44;5012541;28;20038;-62
2022/08/25 08:37:02;;;;;;;4.78;3.35;;;;;;;30.19;100.00;168487.03;5014392;28;20531;-62
2022/08/25 08:39:28;;;;;;;6.18;4.13;;;;;;;30.22;100.00;168493.84;5012623;28;20037;-62
2022/08/25 08:42:16;;;;;;;10.15;3.83;;;;;;;30.01;100.00;168439.31;5012888;28;20033;-62
2022/08/25 08:44:45;;;;;;;4.30;3.35;;;;;;;29.87;100.00;168401.09;4993783;28;20498;-62
2022/08/25 08:47:42;;;;;;;12.32;4.10;;;;;;;29.81;100.00;168384.75;4994442;28;20053;-62
2022/08/25 08:50:13;;;;;;;13.82;4.32;;;;;;;29.80;100.00;168382.00;4986503;28;20125;-62
2022/08/25 08:52:59;;;;;;;7.45;3.15;;;;;;;29.64;100.00;168341.09;5013624;28;20036;-61
2022/08/25 08:55:41;;;;;;;5.15;3.78;;;;;;;29.48;100.00;168297.47;5012236;28;20640;-61
2022/08/25 08:58:24;;;;;;;9.00;5.15;;;;;;;29.53;100.00;168311.06;5013898;28;20473;-62
2022/08/25 09:00:54;;;;;;;3.90;3.50;;;;;;;29.58;100.00;168326.09;5011734;28;20493;-62
2022/08/25 09:03:39;;;;;;;6.95;3.80;;;;;;;29.54;100.00;168313.81;5013573;28;20050;-61
2022/08/25 09:06:22;;;;;;;7.07;3.92;;;;;;;29.60;100.00;168331.56;5012418;28;20037;-61
2022/08/25 09:08:48;;;;;;;5.10;4.30;;;;;;;29.51;100.00;168307.00;5012426;28;20044;-61
2022/08/25 09:11:47;;;;;;;4.95;4.03;;;;;;;29.70;100.00;168357.44;5013328;28;20469;-61
2022/08/25 09:14:34;;;;;;;5.57;4.10;;;;;;;29.70;100.00;168357.44;5012322;28;20088;-62
2022/08/25 09:17:37;;;;;;;3.53;3.08;;;;;;;29.87;100.00;168401.09;5013938;28;20021;-63
2022/08/25 09:20:08;;;;;;;8.88;4.10;;;;;;;30.07;98.91;168454.31;5012209;28;20046;-62
2022/08/25 09:22:59;;;;;;;8.70;4.40;;;;;;;30.03;98.38;168444.78;5013451;28;20075;-62
2022/08/25 09:25:52;;;;;;;5.63;4.38;;;;;;;30.00;98.44;168436.59;5011469;28;20052;-62
2022/08/25 09:28:49;;;;;;;8.77;4.90;;;;;;;30.34;97.27;168526.63;5013429;28;20032;-62
2022/08/25 09:31:37;;;;;;;13.43;4.40;;;;;;;30.59;95.05;168592.09;5012054;28;20058;-61
2022/08/25 09:34:06;;;;;;;14.60;4.10;;;;;;;30.86;96.14;168663.03;5011659;28;20089;-62
2022/08/25 09:36:32;;;;;;;8.80;4.47;;;;;;;30.94;95.99;168684.81;5013208;28;20033;-62
2022/08/25 09:38:58;;;;;;;10.82;4.55;;;;;;;31.10;94.98;168727.19;5012080;28;20366;-61
2022/08/25 09:41:45;;;;;;;6.22;4.10;;;;;;;31.22;94.45;168758.56;5012905;28;20072;-62
2022/08/25 09:44:37;;;;;;;6.53;3.33;;;;;;;30.70;91.38;168622.13;5012052;28;20041;-62
2022/08/25 09:47:11;;;;;;;8.60;3.78;;;;;;;30.81;92.76;168650.75;5012764;28;20021;-62
2022/08/25 09:49:42;;;;;;;7.82;4.95;;;;;;;30.80;93.87;168646.63;5011362;28;20042;-61
2022/08/25 09:52:31;;;;;;;6.70;4.65;;;;;;;30.86;93.83;168663.03;5012975;28;20026;-61
2022/08/25 09:55:15;;;;;;;6.88;3.90;;;;;;;30.95;94.50;168687.56;5011209;28;20050;-62
2022/08/25 09:57:47;;;;;;;10.80;4.20;;;;;;;30.78;93.14;168642.56;5012624;28;20068;-62
2022/08/25 10:00:21;;;;;;;7.22;3.38;;;;;;;30.88;94.32;168668.47;5011634;28;20127;-61
2022/08/25 10:03:08;;;;;;;7.88;4.18;;;;;;;30.67;96.94;168613.91;5011971;28;20033;-61
2022/08/25 10:05:46;;;;;;;14.15;4.38;;;;;;;30.60;94.76;168594.81;5011015;28;20103;-62
2022/08/25 10:08:24;;;;;;;9.63;5.25;;;;;;;30.97;96.42;168693.03;5012892;28;20112;-61
2022/08/25 10:10:54;;;;;;;10.07;3.58;;;;;;;31.18;88.51;168747.63;5010701;28;20052;-61
2022/08/25 10:13:20;;;;;;;12.07;4.05;;;;;;;31.19;86.43;168750.38;5011690;28;20604;-61
2022/08/25 10:15:47;;;;;;;7.00;4.03;;;;;;;31.26;86.44;168769.47;5011077;28;20087;-62
2022/08/25 10:18:25;;;;;;;5.45;3.80;;;;;;;31.24;87.12;168764.00;5012472;28;20030;-62
2022/08/25 10:21:07;;;;;;;3.97;3.20;;;;;;;31.24;83.18;168764.00;5011051;28;20046;-62
2022/08/25 10:23:35;;;;;;;11.50;4.18;;;;;;;31.48;85.21;168828.16;5012330;28;20029;-62
2022/08/25 10:26:07;;;;;;;4.93;3.95;;;;;;;31.71;84.35;168886.84;5004576;28;20042;-62
2022/08/25 10:28:43;;;;;;;5.78;3.78;;;;;;;31.90;82.63;168938.72;4992585;28;20090;-61
2022/08/25 10:31:19;;;;;;;3.03;2.78;;;;;;;31.92;76.61;168944.16;4990907;28;20050;-62
2022/08/25 10:33:56;;;;;;;4.38;2.95;;;;;;;31.85;76.89;168925.06;4992311;28;20137;-61
2022/08/25 10:36:48;;;;;;;18.40;4.23;;;;;;;31.98;76.96;168957.84;4971496;28;20046;-61
2022/08/25 10:39:38;;;;;;;5.57;3.97;;;;;;;31.79;76.19;168910.06;4975152;28;20549;-62
2022/08/25 10:42:15;;;;;;;6.53;3.13;;;;;;;31.87;75.15;168929.19;4991975;28;20022;-62
2022/08/25 10:48:16;;;;;;;10.70;3.33;;;;;;;32.05;71.00;168978.28;4991960;28;19956;-62
2022/08/25 10:50:47;;;;;;;5.40;3.47;;;;;;;32.04;71.72;168974.19;4981984;28;20069;-61
2022/08/25 10:53:37;;;;;;;8.18;4.43;;;;;;;32.11;75.81;168993.31;4992318;28;20409;-62
2022/08/25 10:56:06;;;;;;;7.47;4.25;;;;;;;32.08;76.77;168985.09;4990872;28;20046;-62
2022/08/25 10:58:58;;;;;;;4.18;3.63;;;;;;;32.08;76.59;168985.09;4992129;28;20037;-62
2022/08/25 11:01:37;;;;;;;4.93;3.88;;;;;;;31.73;73.53;168892.31;4971197;28;20526;-61
2022/08/25 11:04:26;;;;;;;10.38;5.50;;;;;;;31.84;73.58;168922.31;4971673;28;20113;-61
2022/08/25 11:06:59;;;;;;;5.95;4.38;;;;;;;32.12;72.64;168996.03;4972397;28;20102;-61
2022/08/25 11:09:30;;;;;;;7.47;3.88;;;;;;;32.41;71.95;169072.50;4976271;28;20050;-61
2022/08/25 11:12:09;;;;;;;8.50;4.32;;;;;;;32.51;70.80;169099.78;4992377;28;20137;-61
2022/08/25 11:14:41;;;;;;;10.20;3.80;;;;;;;32.74;70.13;169159.84;4990099;28;20042;-61
2022/08/25 11:17:19;;;;;;;5.63;3.55;;;;;;;32.72;68.26;169154.41;4991935;28;20018;-61
2022/08/25 11:19:47;;;;;;;9.43;3.75;;;;;;;32.52;68.46;169102.50;4990454;28;20041;-61
2022/08/25 11:22:26;;;;;;;6.82;4.15;;;;;;;32.46;67.92;169086.16;4992123;28;20478;-62
2022/08/25 11:24:56;;;;;;;10.43;4.43;;;;;;;32.76;70.53;169165.31;4990122;28;20042;-61
2022/08/25 11:27:31;;;;;;;5.65;3.60;;;;;;;32.74;66.17;169159.84;4991779;28;20509;-61
2022/08/25 11:30:16;;;;;;;5.55;2.97;;;;;;;32.84;66.51;169187.22;4990265;28;20410;-62
2022/08/25 11:32:47;;;;;;;7.22;3.70;;;;;;;32.93;60.71;169209.06;4991099;28;20027;-62
2022/08/25 11:35:15;;;;;;;7.03;3.22;;;;;;;33.00;61.06;169229.50;4993674;28;20067;-61
2022/08/25 11:37:53;;;;;;;7.88;3.47;;;;;;;33.06;62.34;169245.88;5009903;28;20807;-62